createdAt,value
2019-06-20T00:00:08.978Z,23.00
2019-06-20T00:02:38.519Z,23.00
2019-06-20T00:05:11.699Z,23.00
2019-06-20T00:07:41.115Z,23.00
2019-06-20T00:10:09.442Z,23.10
2019-06-20T00:12:37.458Z,23.10
2019-06-20T00:15:06.541Z,23.10
2019-06-20T00:17:36.308Z,23.10
2019-06-20T00:20:04.717Z,23.10
2019-06-20T00:22:34.217Z,23.10
2019-06-20T00:25:03.520Z,23.10
2019-06-20T00:27:35.759Z,23.20
2019-06-20T00:30:01.105Z,23.20
2019-06-20T00:32:34.448Z,23.20
2019-06-20T00:35:02.337Z,23.20
2019-06-20T00:37:32.217Z,23.20
2019-06-20T00:40:00.116Z,23.20
2019-06-20T00:42:28.080Z,23.20
2019-06-20T00:45:00.498Z,23.20
2019-06-20T00:47:29.995Z,23.20
2019-06-20T00:49:58.048Z,23.20
2019-06-20T00:52:26.063Z,23.20
2019-06-20T00:54:54.037Z,23.10
2019-06-20T00:57:21.928Z,23.10
2019-06-20T00:59:49.707Z,23.10
2019-06-20T01:02:19.745Z,23.10
2019-06-20T01:04:47.597Z,23.00
2019-06-20T01:07:16.538Z,23.00
2019-06-20T01:09:46.031Z,23.00
2019-06-20T01:12:14.132Z,22.90
2019-06-20T01:14:45.263Z,22.90
2019-06-20T01:17:16.662Z,22.90
2019-06-20T01:19:47.391Z,22.80
2019-06-20T01:22:19.411Z,22.80
2019-06-20T01:24:50.629Z,22.80
2019-06-20T01:27:20.102Z,22.70
2019-06-20T01:29:48.447Z,22.70
2019-06-20T01:32:16.416Z,22.70
2019-06-20T01:35:02.521Z,22.70
2019-06-20T01:37:32.621Z,22.60
2019-06-20T01:40:01.770Z,22.60
2019-06-20T01:42:30.734Z,22.60
2019-06-20T01:45:00.932Z,22.60
2019-06-20T01:47:30.477Z,22.60
2019-06-20T01:49:58.460Z,22.50
2019-06-20T01:52:26.392Z,22.50
2019-06-20T01:54:54.399Z,22.60
2019-06-20T01:57:22.218Z,22.60
2019-06-20T01:59:51.672Z,22.60
2019-06-20T02:02:19.612Z,22.60
2019-06-20T02:04:47.549Z,22.60
2019-06-20T02:07:15.705Z,22.60
2019-06-20T02:09:43.622Z,22.60
2019-06-20T02:12:11.567Z,22.60
2019-06-20T02:14:41.442Z,22.70
2019-06-20T02:17:10.666Z,22.60
2019-06-20T02:19:38.613Z,22.60
2019-06-20T02:22:12.386Z,22.60
2019-06-20T02:24:36.618Z,22.50
2019-06-20T02:27:04.603Z,22.50
2019-06-20T02:29:32.605Z,22.40
2019-06-20T02:32:02.610Z,22.30
2019-06-20T02:34:33.563Z,22.30
2019-06-20T02:37:02.486Z,22.20
2019-06-20T02:39:31.823Z,22.20
2019-06-20T02:42:01.000Z,22.20
2019-06-20T02:44:30.723Z,22.10
2019-06-20T02:46:58.883Z,22.10
2019-06-20T02:49:27.221Z,22.10
2019-06-20T02:51:57.829Z,22.10
2019-06-20T02:54:28.199Z,22.00
2019-06-20T02:56:57.140Z,22.00
2019-06-20T02:59:26.072Z,22.00
2019-06-20T03:01:53.931Z,22.00
2019-06-20T03:04:21.810Z,21.90
2019-06-20T03:06:49.658Z,21.90
2019-06-20T03:09:17.666Z,21.80
2019-06-20T03:11:46.209Z,21.80
2019-06-20T03:14:14.168Z,21.70
2019-06-20T03:16:42.232Z,21.70
2019-06-20T03:19:10.254Z,21.70
2019-06-20T03:21:38.897Z,21.70
2019-06-20T03:24:06.717Z,21.70
2019-06-20T03:26:37.756Z,21.70
2019-06-20T03:29:05.686Z,21.70
2019-06-20T03:31:33.669Z,21.60
2019-06-20T03:34:01.681Z,21.60
2019-06-20T03:36:29.589Z,21.60
2019-06-20T03:38:57.420Z,21.70
2019-06-20T03:41:25.280Z,21.60
2019-06-20T03:43:58.822Z,21.70
2019-06-20T03:46:26.009Z,21.70
2019-06-20T03:48:55.702Z,21.70
2019-06-20T03:51:23.639Z,21.80
2019-06-20T03:53:52.992Z,21.80
2019-06-20T03:56:24.335Z,21.90
2019-06-20T03:58:56.919Z,22.00
2019-06-20T04:01:27.639Z,21.90
2019-06-20T04:04:01.249Z,22.10
2019-06-20T04:06:31.781Z,22.10
2019-06-20T04:09:06.922Z,22.20
2019-06-20T04:11:34.781Z,22.40
2019-06-20T04:14:05.378Z,22.80
2019-06-20T04:16:34.832Z,23.40
2019-06-20T04:19:03.686Z,23.90
2019-06-20T04:21:33.516Z,24.00
2019-06-20T04:24:02.546Z,24.00
2019-06-20T04:26:30.312Z,23.90
2019-06-20T04:28:58.137Z,23.90
2019-06-20T04:31:25.893Z,23.70
2019-06-20T04:33:53.744Z,23.60
2019-06-20T04:36:21.531Z,23.40
2019-06-20T04:38:49.917Z,23.30
2019-06-20T04:41:19.384Z,23.10
2019-06-20T04:43:47.256Z,23.10
2019-06-20T04:46:16.924Z,23.10
2019-06-20T04:48:44.791Z,23.10
2019-06-20T04:51:12.577Z,23.10
2019-06-20T04:53:41.337Z,23.10
2019-06-20T04:56:09.161Z,23.10
2019-06-20T04:58:36.930Z,23.20
2019-06-20T05:01:04.734Z,23.20
2019-06-20T05:03:32.538Z,23.20
2019-06-20T05:06:03.052Z,23.20
2019-06-20T05:08:30.807Z,23.20
2019-06-20T05:11:00.222Z,23.30
2019-06-20T05:13:28.001Z,23.30
2019-06-20T05:15:57.901Z,23.30
2019-06-20T05:18:26.856Z,23.40
2019-06-20T05:20:57.581Z,23.40
2019-06-20T05:23:24.814Z,23.40
2019-06-20T05:25:55.124Z,23.50
2019-06-20T05:28:23.020Z,23.50
2019-06-20T05:30:50.981Z,23.50
2019-06-20T05:33:18.769Z,23.60
2019-06-20T05:35:46.741Z,23.70
2019-06-20T05:38:17.953Z,23.70
2019-06-20T05:40:46.309Z,23.80
2019-06-20T05:43:14.128Z,23.90
2019-06-20T05:45:47.629Z,23.90
2019-06-20T05:48:14.312Z,24.00
2019-06-20T05:50:42.380Z,24.10
2019-06-20T05:53:10.696Z,24.20
2019-06-20T05:55:41.302Z,24.30
2019-06-20T05:58:09.707Z,24.50
2019-06-20T06:00:37.573Z,24.60
2019-06-20T06:03:07.085Z,24.70
2019-06-20T06:05:37.196Z,24.80
2019-06-20T06:08:08.419Z,25.20
2019-06-20T06:10:36.693Z,25.90
2019-06-20T06:13:08.515Z,26.60
2019-06-20T06:15:36.609Z,27.30
2019-06-20T06:18:06.226Z,28.80
2019-06-20T06:20:36.711Z,31.50
2019-06-20T06:23:04.674Z,34.70
2019-06-20T06:25:35.617Z,37.70
2019-06-20T06:28:03.645Z,40.10
2019-06-20T06:30:32.958Z,42.40
2019-06-20T06:33:02.395Z,44.20
2019-06-20T06:35:30.212Z,45.40
2019-06-20T06:37:58.274Z,46.70
2019-06-20T06:40:28.940Z,47.50
2019-06-20T06:42:57.119Z,48.40
2019-06-20T06:45:24.894Z,49.10
2019-06-20T06:47:52.904Z,49.80
2019-06-20T06:50:20.704Z,50.50
2019-06-20T06:52:48.545Z,50.80
2019-06-20T06:55:16.361Z,50.90
2019-06-20T06:57:44.364Z,51.30
2019-06-20T07:00:12.895Z,51.20
2019-06-20T07:02:40.803Z,51.40
2019-06-20T07:05:08.606Z,51.50
2019-06-20T07:07:39.412Z,51.90
2019-06-20T07:10:07.633Z,52.50
2019-06-20T07:12:35.683Z,52.80
2019-06-20T07:15:05.169Z,52.80
2019-06-20T07:17:32.984Z,53.00
2019-06-20T07:20:00.978Z,53.40
2019-06-20T07:22:28.993Z,53.40
2019-06-20T07:24:56.985Z,53.60
2019-06-20T07:27:24.914Z,53.80
2019-06-20T07:29:56.185Z,53.90
2019-06-20T07:32:24.023Z,54.00
2019-06-20T07:34:53.032Z,54.00
2019-06-20T07:37:20.831Z,54.20
2019-06-20T07:39:48.661Z,54.50
2019-06-20T07:42:16.538Z,54.40
2019-06-20T07:44:44.396Z,54.10
2019-06-20T07:47:17.452Z,53.90
2019-06-20T07:49:41.636Z,53.70
2019-06-20T07:52:09.547Z,53.40
2019-06-20T07:54:37.398Z,53.20
2019-06-20T07:57:05.919Z,53.20
2019-06-20T07:59:33.959Z,53.40
2019-06-20T08:02:03.032Z,53.70
2019-06-20T08:04:36.711Z,54.10
2019-06-20T08:07:06.044Z,53.90
2019-06-20T08:09:44.796Z,53.80
2019-06-20T08:12:04.725Z,53.90
2019-06-20T08:14:36.343Z,54.10
2019-06-20T08:17:04.511Z,54.50
2019-06-20T08:19:34.452Z,54.70
2019-06-20T08:22:03.801Z,54.70
2019-06-20T08:24:32.403Z,54.40
2019-06-20T08:27:00.440Z,54.40
2019-06-20T08:29:29.278Z,54.90
2019-06-20T08:31:59.390Z,54.80
2019-06-20T08:34:27.375Z,55.10
2019-06-20T08:36:57.189Z,54.90
2019-06-20T08:39:25.001Z,54.60
2019-06-20T08:41:53.215Z,54.60
2019-06-20T08:44:21.824Z,54.20
2019-06-20T08:46:50.201Z,54.00
2019-06-20T08:49:18.395Z,53.60
2019-06-20T08:51:46.948Z,52.70
2019-06-20T08:54:17.899Z,52.10
2019-06-20T08:56:47.912Z,52.00
2019-06-20T08:59:24.453Z,51.90
2019-06-20T09:01:46.878Z,52.00
2019-06-20T09:04:16.781Z,52.00
2019-06-20T09:06:45.025Z,52.30
2019-06-20T09:09:13.445Z,52.70
2019-06-20T09:11:42.530Z,53.10
2019-06-20T09:14:12.073Z,53.40
2019-06-20T09:16:40.447Z,53.30
2019-06-20T09:19:08.793Z,53.30
2019-06-20T09:21:38.593Z,53.30
2019-06-20T09:24:06.882Z,53.30
2019-06-20T09:26:34.969Z,53.10
2019-06-20T09:29:04.681Z,53.00
2019-06-20T09:31:32.960Z,52.80
2019-06-20T09:34:04.901Z,52.70
2019-06-20T09:36:31.035Z,52.50
2019-06-20T09:39:01.790Z,52.40
2019-06-20T09:41:41.180Z,52.70
2019-06-20T09:44:09.776Z,53.00
2019-06-20T09:46:38.004Z,53.70
2019-06-20T09:49:06.111Z,54.00
2019-06-20T09:51:34.250Z,54.10
2019-06-20T09:54:02.576Z,54.10
2019-06-20T09:56:30.892Z,54.30
2019-06-20T09:58:58.941Z,53.80
2019-06-20T10:01:27.063Z,52.90
2019-06-20T10:03:56.720Z,52.10
2019-06-20T10:06:24.964Z,51.90
2019-06-20T10:08:54.344Z,51.90
2019-06-20T10:11:22.693Z,52.10
2019-06-20T10:13:54.273Z,52.30
2019-06-20T10:16:24.918Z,52.20
2019-06-20T10:18:54.820Z,52.20
2019-06-20T10:21:22.695Z,52.60
2019-06-20T10:23:53.968Z,52.70
2019-06-20T10:26:24.471Z,52.70
2019-06-20T10:28:55.156Z,52.60
2019-06-20T10:31:23.520Z,52.40
2019-06-20T10:33:52.513Z,51.90
2019-06-20T10:36:22.223Z,51.20
2019-06-20T10:38:52.930Z,50.80
2019-06-20T10:41:25.309Z,50.80
2019-06-20T10:43:56.723Z,50.50
2019-06-20T10:46:25.560Z,49.90
2019-06-20T10:48:53.751Z,49.40
2019-06-20T10:51:33.114Z,48.80
2019-06-20T10:54:04.060Z,48.70
2019-06-20T10:56:34.177Z,48.10
2019-06-20T10:59:02.314Z,47.30
2019-06-20T11:01:30.753Z,46.90
2019-06-20T11:03:59.681Z,46.30
2019-06-20T11:06:28.145Z,45.60
2019-06-20T11:08:56.154Z,44.60
2019-06-20T11:11:24.105Z,43.50
2019-06-20T11:13:52.441Z,42.50
2019-06-20T11:16:22.741Z,41.50
2019-06-20T11:18:52.253Z,40.40
2019-06-20T11:21:20.403Z,39.50
2019-06-20T11:23:48.553Z,38.80
2019-06-20T11:26:17.891Z,38.10
2019-06-20T11:28:46.165Z,37.40
2019-06-20T11:31:14.856Z,36.80
2019-06-20T11:33:44.120Z,36.30
2019-06-20T11:36:12.481Z,35.80
2019-06-20T11:38:40.892Z,35.40
2019-06-20T11:41:12.590Z,35.00
2019-06-20T11:43:42.154Z,34.80
2019-06-20T11:46:10.795Z,34.70
2019-06-20T11:48:39.055Z,34.70
2019-06-20T11:51:07.313Z,34.60
2019-06-20T11:53:36.536Z,34.50
2019-06-20T11:56:05.113Z,34.40
2019-06-20T11:58:33.514Z,34.40
2019-06-20T12:01:03.877Z,34.30
2019-06-20T12:03:32.084Z,34.20
2019-06-20T12:06:00.321Z,34.20
2019-06-20T12:08:30.095Z,34.10
2019-06-20T12:10:58.195Z,34.10
2019-06-20T12:13:27.894Z,34.00
2019-06-20T12:15:55.910Z,34.00
2019-06-20T12:18:24.015Z,33.70
2019-06-20T12:20:53.221Z,33.50
2019-06-20T12:23:21.518Z,33.20
2019-06-20T12:25:51.381Z,33.00
2019-06-20T12:28:19.600Z,32.90
2019-06-20T12:30:48.343Z,33.00
2019-06-20T12:33:18.447Z,33.10
2019-06-20T12:35:46.765Z,33.20
2019-06-20T12:38:15.312Z,33.20
2019-06-20T12:40:44.084Z,33.20
2019-06-20T12:43:12.356Z,33.20
2019-06-20T12:45:41.303Z,33.30
2019-06-20T12:48:10.180Z,33.50
2019-06-20T12:50:39.736Z,33.60
2019-06-20T12:53:08.683Z,33.70
2019-06-20T12:55:38.913Z,33.90
2019-06-20T12:58:07.954Z,33.90
2019-06-20T13:00:38.902Z,33.90
2019-06-20T13:03:06.798Z,33.90
2019-06-20T13:05:35.191Z,33.80
2019-06-20T13:08:05.605Z,33.90
2019-06-20T13:10:35.223Z,34.00
2019-06-20T13:13:03.492Z,34.00
2019-06-20T13:15:33.345Z,34.10
2019-06-20T13:18:01.761Z,34.00
2019-06-20T13:20:30.211Z,34.00
2019-06-20T13:22:58.385Z,33.90
2019-06-20T13:25:27.998Z,33.90
2019-06-20T13:27:59.651Z,33.80
2019-06-20T13:30:29.850Z,33.90
2019-06-20T13:32:58.054Z,34.00
2019-06-20T13:35:26.282Z,34.10
2019-06-20T13:37:54.611Z,34.40
2019-06-20T13:40:22.982Z,34.70
2019-06-20T13:42:54.476Z,34.80
2019-06-20T13:45:22.544Z,35.00
2019-06-20T13:47:54.143Z,35.00
2019-06-20T13:50:24.086Z,34.90
2019-06-20T13:52:54.715Z,34.80
2019-06-20T13:55:23.042Z,34.70
2019-06-20T13:57:51.069Z,34.60
2019-06-20T14:00:20.222Z,34.40
2019-06-20T14:02:51.165Z,34.30
2019-06-20T14:05:19.317Z,34.10
2019-06-20T14:07:53.277Z,33.80
2019-06-20T14:10:17.654Z,33.60
2019-06-20T14:12:46.857Z,33.50
2019-06-20T14:15:18.254Z,33.40
2019-06-20T14:17:49.797Z,33.40
2019-06-20T14:20:18.075Z,33.40
2019-06-20T14:22:46.164Z,33.40
2019-06-20T14:25:15.382Z,33.30
2019-06-20T14:27:46.013Z,33.20
2019-06-20T14:30:16.006Z,33.10
2019-06-20T14:32:44.223Z,33.00
2019-06-20T14:35:12.815Z,32.80
2019-06-20T14:37:43.423Z,32.70
2019-06-20T14:40:11.305Z,32.40
2019-06-20T14:42:39.358Z,32.30
2019-06-20T14:45:07.756Z,32.10
2019-06-20T14:47:36.316Z,32.00
2019-06-20T14:50:08.006Z,31.80
2019-06-20T14:52:36.338Z,31.70
2019-06-20T14:55:07.496Z,31.50
2019-06-20T14:57:37.526Z,31.40
2019-06-20T15:00:08.573Z,31.20
2019-06-20T15:02:38.771Z,31.10
2019-06-20T15:05:08.565Z,31.00
2019-06-20T15:07:36.739Z,30.80
2019-06-20T15:10:07.843Z,30.50
2019-06-20T15:12:36.183Z,30.00
2019-06-20T15:15:06.336Z,29.60
2019-06-20T15:17:34.658Z,29.20
2019-06-20T15:20:04.605Z,28.90
2019-06-20T15:22:32.756Z,28.70
2019-06-20T15:25:01.096Z,28.60
2019-06-20T15:27:29.327Z,28.50
2019-06-20T15:29:57.530Z,28.30
2019-06-20T15:32:27.788Z,28.30
2019-06-20T15:34:57.007Z,28.20
2019-06-20T15:37:25.218Z,28.10
2019-06-20T15:39:53.691Z,28.00
2019-06-20T15:42:22.576Z,28.00
2019-06-20T15:44:51.857Z,27.90
2019-06-20T15:47:20.399Z,27.80
2019-06-20T15:49:48.539Z,27.70
2019-06-20T15:52:16.664Z,27.60
2019-06-20T15:54:45.186Z,27.50
2019-06-20T15:57:18.385Z,27.30
2019-06-20T15:59:47.036Z,27.30
2019-06-20T16:02:18.103Z,27.30
2019-06-20T16:04:47.461Z,27.40
2019-06-20T16:07:15.837Z,27.50
2019-06-20T16:09:44.074Z,27.70
2019-06-20T16:12:12.446Z,27.80
2019-06-20T16:14:40.862Z,28.00
2019-06-20T16:17:09.099Z,28.10
2019-06-20T16:19:37.286Z,28.20
2019-06-20T16:22:05.239Z,28.30
2019-06-20T16:24:34.203Z,28.30
2019-06-20T16:27:02.342Z,28.30
2019-06-20T16:29:31.680Z,28.30
2019-06-20T16:32:00.952Z,28.40
2019-06-20T16:34:28.964Z,28.50
2019-06-20T16:37:09.609Z,28.60
2019-06-20T16:39:30.152Z,28.70
2019-06-20T16:42:00.016Z,28.70
2019-06-20T16:44:30.651Z,28.80
2019-06-20T16:47:00.025Z,28.80
2019-06-20T16:49:28.982Z,28.80
2019-06-20T16:51:58.611Z,28.70
2019-06-20T16:54:29.041Z,28.70
2019-06-20T16:56:57.121Z,28.70
2019-06-20T16:59:25.308Z,28.70
2019-06-20T17:01:53.662Z,28.70
2019-06-20T17:04:24.925Z,28.70
2019-06-20T17:06:53.931Z,28.60
2019-06-20T17:09:23.653Z,28.60
2019-06-20T17:11:53.491Z,28.50
2019-06-20T17:14:21.684Z,28.50
2019-06-20T17:16:49.935Z,28.50
2019-06-20T17:19:20.675Z,28.40
2019-06-20T17:21:48.992Z,28.40
2019-06-20T17:24:17.334Z,28.30
2019-06-20T17:26:45.333Z,28.30
2019-06-20T17:29:15.243Z,28.30
2019-06-20T17:31:43.658Z,28.30
2019-06-20T17:34:16.387Z,28.30
2019-06-20T17:36:46.672Z,28.30
2019-06-20T17:39:15.175Z,28.30
2019-06-20T17:41:54.875Z,28.20
2019-06-20T17:44:13.100Z,28.20
2019-06-20T17:46:43.254Z,28.20
2019-06-20T17:49:13.061Z,28.10
2019-06-20T17:51:41.019Z,28.10
2019-06-20T17:54:09.316Z,28.00
2019-06-20T17:56:37.356Z,28.00
2019-06-20T17:59:05.486Z,28.00
2019-06-20T18:01:35.973Z,28.00
2019-06-20T18:04:13.433Z,28.00
2019-06-20T18:06:33.956Z,27.90
2019-06-20T18:09:04.109Z,27.90
2019-06-20T18:11:32.599Z,27.90
2019-06-20T18:14:00.511Z,27.80
2019-06-20T18:16:29.747Z,27.80
2019-06-20T18:18:57.597Z,27.80
2019-06-20T18:21:26.335Z,27.80
2019-06-20T18:23:54.443Z,27.90
2019-06-20T18:26:22.274Z,28.00
2019-06-20T18:28:50.120Z,28.10
2019-06-20T18:31:17.950Z,28.10
2019-06-20T18:33:45.736Z,28.10
2019-06-20T18:36:13.760Z,27.90
2019-06-20T18:38:41.945Z,27.70
2019-06-20T18:41:09.905Z,27.50
2019-06-20T18:43:37.968Z,27.20
2019-06-20T18:46:06.044Z,27.00
2019-06-20T18:48:35.160Z,26.70
2019-06-20T18:51:03.401Z,26.50
2019-06-20T18:53:31.400Z,26.30
2019-06-20T18:55:59.405Z,26.20
2019-06-20T18:58:27.521Z,26.00
2019-06-20T19:00:55.513Z,25.90
2019-06-20T19:03:23.639Z,25.80
2019-06-20T19:05:52.800Z,25.70
2019-06-20T19:08:21.208Z,25.60
2019-06-20T19:10:49.360Z,25.50
2019-06-20T19:13:17.481Z,25.40
2019-06-20T19:15:45.650Z,25.40
2019-06-20T19:18:13.748Z,25.30
2019-06-20T19:20:41.929Z,25.20
2019-06-20T19:23:10.005Z,25.20
2019-06-20T19:25:37.954Z,25.10
2019-06-20T19:28:06.470Z,25.00
2019-06-20T19:30:41.991Z,24.90
2019-06-20T19:33:10.400Z,24.90
2019-06-20T19:35:38.429Z,24.80
2019-06-20T19:38:06.371Z,24.80
2019-06-20T19:40:36.009Z,24.80
2019-06-20T19:43:04.280Z,24.70
2019-06-20T19:45:33.801Z,24.60
2019-06-20T19:48:01.807Z,24.50
2019-06-20T19:50:29.798Z,24.40
2019-06-20T19:52:57.680Z,24.30
2019-06-20T19:55:25.692Z,24.20
2019-06-20T19:57:53.640Z,24.20
2019-06-20T20:00:22.761Z,24.10
2019-06-20T20:02:52.721Z,24.10
2019-06-20T20:05:21.280Z,24.00
2019-06-20T20:07:49.293Z,24.00
2019-06-20T20:10:20.240Z,24.00
2019-06-20T20:12:48.647Z,23.90
2019-06-20T20:15:17.280Z,23.80
2019-06-20T20:17:45.411Z,23.80
2019-06-20T20:20:13.608Z,23.80
2019-06-20T20:22:41.562Z,23.70
2019-06-20T20:25:09.600Z,23.70
2019-06-20T20:27:39.722Z,23.70
2019-06-20T20:30:12.560Z,23.60
2019-06-20T20:32:40.665Z,23.60
2019-06-20T20:35:08.770Z,23.60
2019-06-20T20:37:38.055Z,23.60
2019-06-20T20:40:08.908Z,23.50
2019-06-20T20:42:37.010Z,23.50
2019-06-20T20:45:09.100Z,23.50
2019-06-20T20:47:37.414Z,23.40
2019-06-20T20:50:09.021Z,23.40
2019-06-20T20:52:37.351Z,23.40
2019-06-20T20:55:06.492Z,23.40
2019-06-20T20:57:34.556Z,23.40
2019-06-20T21:00:04.255Z,23.30
2019-06-20T21:02:32.222Z,23.30
2019-06-20T21:05:00.231Z,23.30
2019-06-20T21:07:28.095Z,23.20
2019-06-20T21:09:56.291Z,23.20
2019-06-20T21:12:24.247Z,23.20
2019-06-20T21:14:53.880Z,23.20
2019-06-20T21:17:21.966Z,23.20
2019-06-20T21:19:49.850Z,23.10
2019-06-20T21:22:18.004Z,23.10
2019-06-20T21:24:45.957Z,23.10
2019-06-20T21:27:13.900Z,23.10
2019-06-20T21:29:41.765Z,23.10
2019-06-20T21:32:09.800Z,23.00
2019-06-20T21:35:00.015Z,23.00
2019-06-20T21:37:25.224Z,23.00
2019-06-20T21:39:54.388Z,23.00
2019-06-20T21:42:22.595Z,23.00
2019-06-20T21:44:51.322Z,22.90
2019-06-20T21:47:19.278Z,22.90
2019-06-20T21:49:47.307Z,22.90
2019-06-20T21:52:15.174Z,22.80
2019-06-20T21:54:43.291Z,22.80
2019-06-20T21:57:11.392Z,22.80
2019-06-20T21:59:40.479Z,22.80
2019-06-20T22:02:08.298Z,22.80
2019-06-20T22:04:36.229Z,22.80
2019-06-20T22:07:04.085Z,22.70
2019-06-20T22:09:32.972Z,22.70
2019-06-20T22:12:00.843Z,22.80
2019-06-20T22:14:32.300Z,22.70
2019-06-20T22:16:58.327Z,22.70
2019-06-20T22:19:27.366Z,22.70
2019-06-20T22:21:55.445Z,22.70
2019-06-20T22:24:23.425Z,22.70
2019-06-20T22:26:51.344Z,22.60
2019-06-20T22:29:20.028Z,22.60
2019-06-20T22:31:47.996Z,22.60
2019-06-20T22:34:15.801Z,22.60
2019-06-20T22:36:43.772Z,22.50
2019-06-20T22:39:11.667Z,22.50
2019-06-20T22:41:39.538Z,22.50
2019-06-20T22:44:07.828Z,22.50
2019-06-20T22:46:38.898Z,22.40
2019-06-20T22:49:07.451Z,22.40
2019-06-20T22:51:37.608Z,22.40
2019-06-20T22:54:05.275Z,22.40
2019-06-20T22:56:33.293Z,22.30
2019-06-20T22:59:01.079Z,22.30
2019-06-20T23:01:29.996Z,22.20
2019-06-20T23:03:59.395Z,22.10
2019-06-20T23:06:27.399Z,21.90
2019-06-20T23:08:55.258Z,21.90
2019-06-20T23:11:23.460Z,21.80
2019-06-20T23:13:51.413Z,21.70
2019-06-20T23:16:21.087Z,21.60
2019-06-20T23:18:48.843Z,21.60
2019-06-20T23:21:16.852Z,21.50
2019-06-20T23:23:44.832Z,21.40
2019-06-20T23:26:14.834Z,21.40
2019-06-20T23:28:42.645Z,21.30
2019-06-20T23:31:10.743Z,21.30
2019-06-20T23:33:40.423Z,21.30
2019-06-20T23:36:08.423Z,21.20
2019-06-20T23:38:36.407Z,21.20
2019-06-20T23:41:04.220Z,21.20
2019-06-20T23:43:32.103Z,21.20
2019-06-20T23:45:59.919Z,21.10
2019-06-20T23:48:27.850Z,21.10
2019-06-20T23:50:55.856Z,21.10
2019-06-20T23:53:25.468Z,21.10
2019-06-20T23:55:53.237Z,21.10
2019-06-20T23:58:21.043Z,21.10
